sensor_id;sensor_type;location;lat;lon;timestamp;P1;durP1;ratioP1;P2;durP2;ratioP2
39898;SDS011;25571;47.876;10.642;2024-01-10T00:00:13;43.05;;;20.10;;
39898;SDS011;25571;47.876;10.642;2024-01-10T00:02:39;44.83;;;21.48;;
39898;SDS011;25571;47.876;10.642;2024-01-10T00:05:04;47.03;;;22.02;;
39898;SDS011;25571;47.876;10.642;2024-01-10T00:07:31;43.53;;;21.30;;
39898;SDS011;25571;47.876;10.642;2024-01-10T00:09:57;41.53;;;19.67;;
39898;SDS011;25571;47.876;10.642;2024-01-10T00:12:24;50.53;;;21.15;;
39898;SDS011;25571;47.876;10.642;2024-01-10T00:14:50;48.85;;;23.17;;
39898;SDS011;25571;47.876;10.642;2024-01-10T00:17:16;45.38;;;22.55;;
39898;SDS011;25571;47.876;10.642;2024-01-10T00:19:41;46.67;;;20.85;;
39898;SDS011;25571;47.876;10.642;2024-01-10T00:22:07;41.10;;;18.80;;
39898;SDS011;25571;47.876;10.642;2024-01-10T00:24:32;43.08;;;21.27;;
39898;SDS011;25571;47.876;10.642;2024-01-10T00:26:58;40.38;;;20.20;;
39898;SDS011;25571;47.876;10.642;2024-01-10T00:29:23;39.40;;;19.17;;
39898;SDS011;25571;47.876;10.642;2024-01-10T00:31:49;44.22;;;19.55;;
39898;SDS011;25571;47.876;10.642;2024-01-10T00:34:17;44.67;;;20.52;;
39898;SDS011;25571;47.876;10.642;2024-01-10T00:36:43;43.35;;;19.98;;
39898;SDS011;25571;47.876;10.642;2024-01-10T00:39:08;44.28;;;19.40;;
39898;SDS011;25571;47.876;10.642;2024-01-10T00:41:34;43.63;;;19.63;;
39898;SDS011;25571;47.876;10.642;2024-01-10T00:43:59;39.30;;;19.65;;
39898;SDS011;25571;47.876;10.642;2024-01-10T00:46:25;39.17;;;19.35;;
39898;SDS011;25571;47.876;10.642;2024-01-10T00:48:50;44.38;;;21.42;;
39898;SDS011;25571;47.876;10.642;2024-01-10T00:51:16;45.78;;;20.10;;
39898;SDS011;25571;47.876;10.642;2024-01-10T00:53:41;41.33;;;20.90;;
39898;SDS011;25571;47.876;10.642;2024-01-10T00:56:07;41.75;;;19.73;;
39898;SDS011;25571;47.876;10.642;2024-01-10T00:58:33;41.40;;;20.38;;
39898;SDS011;25571;47.876;10.642;2024-01-10T01:00:58;44.72;;;21.77;;
39898;SDS011;25571;47.876;10.642;2024-01-10T01:03:24;46.78;;;22.00;;
39898;SDS011;25571;47.876;10.642;2024-01-10T01:05:49;42.97;;;20.92;;
39898;SDS011;25571;47.876;10.642;2024-01-10T01:08:15;43.05;;;19.92;;
39898;SDS011;25571;47.876;10.642;2024-01-10T01:10:41;50.03;;;23.67;;
39898;SDS011;25571;47.876;10.642;2024-01-10T01:13:06;53.47;;;23.33;;
39898;SDS011;25571;47.876;10.642;2024-01-10T01:15:32;48.63;;;22.95;;
39898;SDS011;25571;47.876;10.642;2024-01-10T01:17:57;48.25;;;23.45;;
39898;SDS011;25571;47.876;10.642;2024-01-10T01:20:23;48.50;;;22.67;;
39898;SDS011;25571;47.876;10.642;2024-01-10T01:22:49;52.70;;;24.17;;
39898;SDS011;25571;47.876;10.642;2024-01-10T01:25:14;50.22;;;23.10;;
39898;SDS011;25571;47.876;10.642;2024-01-10T01:27:40;48.10;;;24.17;;
39898;SDS011;25571;47.876;10.642;2024-01-10T01:30:05;47.50;;;23.45;;
39898;SDS011;25571;47.876;10.642;2024-01-10T01:32:32;45.25;;;21.70;;
39898;SDS011;25571;47.876;10.642;2024-01-10T01:34:57;47.45;;;21.25;;
39898;SDS011;25571;47.876;10.642;2024-01-10T01:37:23;46.85;;;20.67;;
39898;SDS011;25571;47.876;10.642;2024-01-10T01:39:48;44.28;;;19.75;;
39898;SDS011;25571;47.876;10.642;2024-01-10T01:42:15;45.92;;;21.83;;
39898;SDS011;25571;47.876;10.642;2024-01-10T01:44:40;46.60;;;20.73;;
39898;SDS011;25571;47.876;10.642;2024-01-10T01:47:06;46.25;;;21.67;;
39898;SDS011;25571;47.876;10.642;2024-01-10T01:49:31;43.05;;;19.90;;
39898;SDS011;25571;47.876;10.642;2024-01-10T01:51:57;43.90;;;20.73;;
39898;SDS011;25571;47.876;10.642;2024-01-10T01:54:24;48.58;;;22.42;;
39898;SDS011;25571;47.876;10.642;2024-01-10T01:56:51;48.47;;;21.02;;
39898;SDS011;25571;47.876;10.642;2024-01-10T01:59:17;45.60;;;21.42;;
39898;SDS011;25571;47.876;10.642;2024-01-10T02:01:43;42.08;;;19.92;;
39898;SDS011;25571;47.876;10.642;2024-01-10T02:04:09;51.55;;;22.27;;
39898;SDS011;25571;47.876;10.642;2024-01-10T02:06:34;46.78;;;21.98;;
39898;SDS011;25571;47.876;10.642;2024-01-10T02:09:00;43.40;;;21.63;;
39898;SDS011;25571;47.876;10.642;2024-01-10T02:11:26;45.10;;;20.63;;
39898;SDS011;25571;47.876;10.642;2024-01-10T02:13:52;48.75;;;22.25;;
39898;SDS011;25571;47.876;10.642;2024-01-10T02:16:20;49.03;;;21.58;;
39898;SDS011;25571;47.876;10.642;2024-01-10T02:18:48;49.47;;;21.85;;
39898;SDS011;25571;47.876;10.642;2024-01-10T02:21:14;45.63;;;22.05;;
39898;SDS011;25571;47.876;10.642;2024-01-10T02:23:40;52.40;;;23.15;;
39898;SDS011;25571;47.876;10.642;2024-01-10T02:26:06;45.58;;;21.80;;
39898;SDS011;25571;47.876;10.642;2024-01-10T02:28:31;44.90;;;21.35;;
39898;SDS011;25571;47.876;10.642;2024-01-10T02:30:57;49.75;;;22.60;;
39898;SDS011;25571;47.876;10.642;2024-01-10T02:33:23;46.92;;;21.25;;
39898;SDS011;25571;47.876;10.642;2024-01-10T02:35:50;44.92;;;21.30;;
39898;SDS011;25571;47.876;10.642;2024-01-10T02:38:15;46.58;;;21.27;;
39898;SDS011;25571;47.876;10.642;2024-01-10T02:40:41;41.13;;;20.33;;
39898;SDS011;25571;47.876;10.642;2024-01-10T02:43:06;47.65;;;22.20;;
39898;SDS011;25571;47.876;10.642;2024-01-10T02:45:32;42.55;;;20.80;;
39898;SDS011;25571;47.876;10.642;2024-01-10T02:47:59;50.20;;;21.38;;
39898;SDS011;25571;47.876;10.642;2024-01-10T02:50:24;47.20;;;22.30;;
39898;SDS011;25571;47.876;10.642;2024-01-10T02:52:50;43.65;;;20.63;;
39898;SDS011;25571;47.876;10.642;2024-01-10T02:55:15;46.15;;;22.17;;
39898;SDS011;25571;47.876;10.642;2024-01-10T02:57:41;53.88;;;24.30;;
39898;SDS011;25571;47.876;10.642;2024-01-10T03:00:07;54.70;;;23.67;;
39898;SDS011;25571;47.876;10.642;2024-01-10T03:02:33;48.38;;;22.27;;
39898;SDS011;25571;47.876;10.642;2024-01-10T03:04:58;47.40;;;20.67;;
39898;SDS011;25571;47.876;10.642;2024-01-10T03:07:24;53.08;;;21.73;;
39898;SDS011;25571;47.876;10.642;2024-01-10T03:09:50;44.28;;;20.48;;
39898;SDS011;25571;47.876;10.642;2024-01-10T03:12:15;47.40;;;21.65;;
39898;SDS011;25571;47.876;10.642;2024-01-10T03:14:41;49.80;;;21.38;;
39898;SDS011;25571;47.876;10.642;2024-01-10T03:17:06;52.72;;;22.95;;
39898;SDS011;25571;47.876;10.642;2024-01-10T03:19:32;55.33;;;23.63;;
39898;SDS011;25571;47.876;10.642;2024-01-10T03:21:58;54.72;;;24.67;;
39898;SDS011;25571;47.876;10.642;2024-01-10T03:24:23;55.92;;;24.55;;
39898;SDS011;25571;47.876;10.642;2024-01-10T03:26:52;57.08;;;26.05;;
39898;SDS011;25571;47.876;10.642;2024-01-10T03:29:17;62.38;;;26.38;;
39898;SDS011;25571;47.876;10.642;2024-01-10T03:31:43;57.90;;;24.98;;
39898;SDS011;25571;47.876;10.642;2024-01-10T03:34:08;52.70;;;23.73;;
39898;SDS011;25571;47.876;10.642;2024-01-10T03:36:34;54.78;;;23.42;;
39898;SDS011;25571;47.876;10.642;2024-01-10T03:38:59;51.38;;;22.88;;
39898;SDS011;25571;47.876;10.642;2024-01-10T03:41:25;46.33;;;21.60;;
39898;SDS011;25571;47.876;10.642;2024-01-10T03:43:51;50.05;;;22.55;;
39898;SDS011;25571;47.876;10.642;2024-01-10T03:46:17;50.28;;;23.40;;
39898;SDS011;25571;47.876;10.642;2024-01-10T03:48:43;55.17;;;24.88;;
39898;SDS011;25571;47.876;10.642;2024-01-10T03:51:16;50.88;;;22.88;;
39898;SDS011;25571;47.876;10.642;2024-01-10T03:53:42;54.67;;;24.25;;
39898;SDS011;25571;47.876;10.642;2024-01-10T03:56:08;54.33;;;22.73;;
39898;SDS011;25571;47.876;10.642;2024-01-10T03:58:34;52.10;;;22.35;;
39898;SDS011;25571;47.876;10.642;2024-01-10T04:01:04;55.40;;;24.38;;
39898;SDS011;25571;47.876;10.642;2024-01-10T04:03:33;54.05;;;22.98;;
39898;SDS011;25571;47.876;10.642;2024-01-10T04:06:00;55.47;;;23.77;;
39898;SDS011;25571;47.876;10.642;2024-01-10T04:08:25;55.22;;;21.77;;
39898;SDS011;25571;47.876;10.642;2024-01-10T04:10:51;55.63;;;22.58;;
39898;SDS011;25571;47.876;10.642;2024-01-10T04:13:17;50.10;;;21.38;;
39898;SDS011;25571;47.876;10.642;2024-01-10T04:15:42;50.90;;;21.80;;
39898;SDS011;25571;47.876;10.642;2024-01-10T04:18:08;53.35;;;22.17;;
39898;SDS011;25571;47.876;10.642;2024-01-10T04:20:33;46.08;;;21.10;;
39898;SDS011;25571;47.876;10.642;2024-01-10T04:22:59;56.03;;;22.40;;
39898;SDS011;25571;47.876;10.642;2024-01-10T04:25:24;49.20;;;22.08;;
39898;SDS011;25571;47.876;10.642;2024-01-10T04:27:50;48.92;;;22.23;;
39898;SDS011;25571;47.876;10.642;2024-01-10T04:30:16;46.28;;;19.83;;
39898;SDS011;25571;47.876;10.642;2024-01-10T04:32:41;47.08;;;21.52;;
39898;SDS011;25571;47.876;10.642;2024-01-10T04:35:07;42.22;;;19.85;;
39898;SDS011;25571;47.876;10.642;2024-01-10T04:37:32;51.17;;;21.20;;
39898;SDS011;25571;47.876;10.642;2024-01-10T04:39:58;45.40;;;20.88;;
39898;SDS011;25571;47.876;10.642;2024-01-10T04:42:24;49.13;;;20.55;;
39898;SDS011;25571;47.876;10.642;2024-01-10T04:44:50;49.70;;;21.08;;
39898;SDS011;25571;47.876;10.642;2024-01-10T04:47:15;45.95;;;20.77;;
39898;SDS011;25571;47.876;10.642;2024-01-10T04:49:41;51.60;;;22.05;;
39898;SDS011;25571;47.876;10.642;2024-01-10T04:52:07;46.83;;;21.88;;
39898;SDS011;25571;47.876;10.642;2024-01-10T04:54:32;46.90;;;21.65;;
39898;SDS011;25571;47.876;10.642;2024-01-10T04:56:59;47.45;;;21.00;;
39898;SDS011;25571;47.876;10.642;2024-01-10T04:59:24;48.13;;;20.27;;
39898;SDS011;25571;47.876;10.642;2024-01-10T05:01:50;51.47;;;21.67;;
39898;SDS011;25571;47.876;10.642;2024-01-10T05:04:15;45.03;;;20.90;;
39898;SDS011;25571;47.876;10.642;2024-01-10T05:06:41;43.25;;;20.17;;
39898;SDS011;25571;47.876;10.642;2024-01-10T05:09:07;47.13;;;21.50;;
39898;SDS011;25571;47.876;10.642;2024-01-10T05:11:32;45.80;;;19.80;;
39898;SDS011;25571;47.876;10.642;2024-01-10T05:14:00;47.10;;;22.10;;
39898;SDS011;25571;47.876;10.642;2024-01-10T05:16:26;52.42;;;22.35;;
39898;SDS011;25571;47.876;10.642;2024-01-10T05:18:52;46.50;;;20.83;;
39898;SDS011;25571;47.876;10.642;2024-01-10T05:21:17;45.42;;;21.60;;
39898;SDS011;25571;47.876;10.642;2024-01-10T05:23:43;50.83;;;20.70;;
39898;SDS011;25571;47.876;10.642;2024-01-10T05:26:09;46.75;;;20.15;;
39898;SDS011;25571;47.876;10.642;2024-01-10T05:28:34;52.38;;;20.95;;
39898;SDS011;25571;47.876;10.642;2024-01-10T05:31:00;49.88;;;22.08;;
39898;SDS011;25571;47.876;10.642;2024-01-10T05:33:26;49.92;;;21.75;;
39898;SDS011;25571;47.876;10.642;2024-01-10T05:35:51;44.92;;;20.88;;
39898;SDS011;25571;47.876;10.642;2024-01-10T05:38:17;46.65;;;21.60;;
39898;SDS011;25571;47.876;10.642;2024-01-10T05:40:42;51.60;;;20.92;;
39898;SDS011;25571;47.876;10.642;2024-01-10T05:43:08;47.50;;;21.42;;
39898;SDS011;25571;47.876;10.642;2024-01-10T05:45:37;47.92;;;20.13;;
39898;SDS011;25571;47.876;10.642;2024-01-10T05:48:03;45.60;;;21.40;;
39898;SDS011;25571;47.876;10.642;2024-01-10T05:50:29;45.13;;;22.77;;
39898;SDS011;25571;47.876;10.642;2024-01-10T05:52:55;49.53;;;20.95;;
39898;SDS011;25571;47.876;10.642;2024-01-10T05:55:20;49.28;;;22.00;;
39898;SDS011;25571;47.876;10.642;2024-01-10T05:57:48;45.15;;;20.38;;
39898;SDS011;25571;47.876;10.642;2024-01-10T06:00:14;48.47;;;21.05;;
39898;SDS011;25571;47.876;10.642;2024-01-10T06:02:41;49.67;;;21.75;;
39898;SDS011;25571;47.876;10.642;2024-01-10T06:05:08;48.03;;;20.42;;
39898;SDS011;25571;47.876;10.642;2024-01-10T06:07:35;52.55;;;21.25;;
39898;SDS011;25571;47.876;10.642;2024-01-10T06:10:01;51.58;;;21.52;;
39898;SDS011;25571;47.876;10.642;2024-01-10T06:12:27;45.97;;;20.83;;
39898;SDS011;25571;47.876;10.642;2024-01-10T06:14:53;42.17;;;20.58;;
39898;SDS011;25571;47.876;10.642;2024-01-10T06:17:19;47.22;;;20.65;;
39898;SDS011;25571;47.876;10.642;2024-01-10T06:19:44;48.17;;;21.25;;
39898;SDS011;25571;47.876;10.642;2024-01-10T06:22:11;50.40;;;20.98;;
39898;SDS011;25571;47.876;10.642;2024-01-10T06:24:37;49.05;;;20.80;;
39898;SDS011;25571;47.876;10.642;2024-01-10T06:27:03;51.67;;;21.13;;
39898;SDS011;25571;47.876;10.642;2024-01-10T06:29:29;46.17;;;20.30;;
39898;SDS011;25571;47.876;10.642;2024-01-10T06:31:55;39.92;;;19.83;;
39898;SDS011;25571;47.876;10.642;2024-01-10T06:34:22;45.92;;;20.70;;
39898;SDS011;25571;47.876;10.642;2024-01-10T06:36:47;45.05;;;21.00;;
39898;SDS011;25571;47.876;10.642;2024-01-10T06:39:13;41.42;;;19.80;;
39898;SDS011;25571;47.876;10.642;2024-01-10T06:41:39;47.22;;;21.33;;
39898;SDS011;25571;47.876;10.642;2024-01-10T06:44:04;50.33;;;19.50;;
39898;SDS011;25571;47.876;10.642;2024-01-10T06:46:31;50.53;;;22.73;;
39898;SDS011;25571;47.876;10.642;2024-01-10T06:48:58;45.13;;;20.27;;
39898;SDS011;25571;47.876;10.642;2024-01-10T06:51:24;47.00;;;19.77;;
39898;SDS011;25571;47.876;10.642;2024-01-10T06:53:50;48.58;;;20.85;;
39898;SDS011;25571;47.876;10.642;2024-01-10T06:56:15;52.75;;;21.05;;
39898;SDS011;25571;47.876;10.642;2024-01-10T06:58:41;48.92;;;20.67;;
39898;SDS011;25571;47.876;10.642;2024-01-10T07:01:13;46.85;;;20.15;;
39898;SDS011;25571;47.876;10.642;2024-01-10T07:03:39;47.72;;;20.52;;
39898;SDS011;25571;47.876;10.642;2024-01-10T07:06:05;50.00;;;21.77;;
39898;SDS011;25571;47.876;10.642;2024-01-10T07:08:30;48.45;;;22.00;;
39898;SDS011;25571;47.876;10.642;2024-01-10T07:10:56;44.38;;;20.90;;
39898;SDS011;25571;47.876;10.642;2024-01-10T07:13:22;45.83;;;20.13;;
39898;SDS011;25571;47.876;10.642;2024-01-10T07:15:48;49.47;;;21.90;;
39898;SDS011;25571;47.876;10.642;2024-01-10T07:18:16;50.65;;;20.25;;
39898;SDS011;25571;47.876;10.642;2024-01-10T07:20:41;43.97;;;19.27;;
39898;SDS011;25571;47.876;10.642;2024-01-10T07:23:07;47.22;;;19.58;;
39898;SDS011;25571;47.876;10.642;2024-01-10T07:25:33;44.58;;;20.92;;
39898;SDS011;25571;47.876;10.642;2024-01-10T07:27:58;42.92;;;19.85;;
39898;SDS011;25571;47.876;10.642;2024-01-10T07:30:24;49.13;;;19.77;;
39898;SDS011;25571;47.876;10.642;2024-01-10T07:32:50;45.75;;;19.40;;
39898;SDS011;25571;47.876;10.642;2024-01-10T07:35:15;49.88;;;19.38;;
39898;SDS011;25571;47.876;10.642;2024-01-10T07:37:41;47.30;;;21.70;;
39898;SDS011;25571;47.876;10.642;2024-01-10T07:40:08;49.72;;;20.50;;
39898;SDS011;25571;47.876;10.642;2024-01-10T07:42:36;44.67;;;20.13;;
39898;SDS011;25571;47.876;10.642;2024-01-10T07:45:02;46.08;;;20.05;;
39898;SDS011;25571;47.876;10.642;2024-01-10T07:47:32;49.50;;;20.85;;
39898;SDS011;25571;47.876;10.642;2024-01-10T07:50:05;48.33;;;21.17;;
39898;SDS011;25571;47.876;10.642;2024-01-10T07:52:32;45.92;;;20.90;;
39898;SDS011;25571;47.876;10.642;2024-01-10T07:54:58;39.95;;;18.60;;
39898;SDS011;25571;47.876;10.642;2024-01-10T07:57:23;42.78;;;19.13;;
39898;SDS011;25571;47.876;10.642;2024-01-10T07:59:49;49.22;;;21.25;;
39898;SDS011;25571;47.876;10.642;2024-01-10T08:02:15;42.95;;;18.95;;
39898;SDS011;25571;47.876;10.642;2024-01-10T08:04:41;47.75;;;20.75;;
39898;SDS011;25571;47.876;10.642;2024-01-10T08:07:07;46.92;;;21.70;;
39898;SDS011;25571;47.876;10.642;2024-01-10T08:09:33;55.25;;;23.98;;
39898;SDS011;25571;47.876;10.642;2024-01-10T08:11:58;47.80;;;22.02;;
39898;SDS011;25571;47.876;10.642;2024-01-10T08:14:24;46.25;;;21.40;;
39898;SDS011;25571;47.876;10.642;2024-01-10T08:16:49;51.92;;;23.38;;
39898;SDS011;25571;47.876;10.642;2024-01-10T08:19:18;50.13;;;23.25;;
39898;SDS011;25571;47.876;10.642;2024-01-10T08:21:43;52.72;;;24.77;;
39898;SDS011;25571;47.876;10.642;2024-01-10T08:24:09;52.17;;;26.48;;
39898;SDS011;25571;47.876;10.642;2024-01-10T08:26:35;56.45;;;26.13;;
39898;SDS011;25571;47.876;10.642;2024-01-10T08:29:00;43.58;;;21.48;;
39898;SDS011;25571;47.876;10.642;2024-01-10T08:31:26;42.97;;;21.73;;
39898;SDS011;25571;47.876;10.642;2024-01-10T08:33:52;38.80;;;19.92;;
39898;SDS011;25571;47.876;10.642;2024-01-10T08:36:18;45.33;;;23.65;;
39898;SDS011;25571;47.876;10.642;2024-01-10T08:38:43;47.55;;;24.80;;
39898;SDS011;25571;47.876;10.642;2024-01-10T08:41:09;43.38;;;24.25;;
39898;SDS011;25571;47.876;10.642;2024-01-10T08:43:36;45.75;;;23.48;;
39898;SDS011;25571;47.876;10.642;2024-01-10T08:46:02;46.45;;;23.77;;
39898;SDS011;25571;47.876;10.642;2024-01-10T08:48:28;43.90;;;24.15;;
39898;SDS011;25571;47.876;10.642;2024-01-10T08:50:54;45.60;;;26.25;;
39898;SDS011;25571;47.876;10.642;2024-01-10T08:53:21;54.97;;;31.17;;
39898;SDS011;25571;47.876;10.642;2024-01-10T08:55:47;48.47;;;28.73;;
39898;SDS011;25571;47.876;10.642;2024-01-10T08:58:13;42.58;;;24.65;;
39898;SDS011;25571;47.876;10.642;2024-01-10T09:00:38;40.75;;;24.27;;
39898;SDS011;25571;47.876;10.642;2024-01-10T09:03:04;40.55;;;23.48;;
39898;SDS011;25571;47.876;10.642;2024-01-10T09:05:30;40.13;;;22.13;;
39898;SDS011;25571;47.876;10.642;2024-01-10T09:07:55;40.17;;;22.58;;
39898;SDS011;25571;47.876;10.642;2024-01-10T09:10:21;34.67;;;20.67;;
39898;SDS011;25571;47.876;10.642;2024-01-10T09:12:47;37.63;;;22.13;;
39898;SDS011;25571;47.876;10.642;2024-01-10T09:15:13;41.03;;;25.45;;
39898;SDS011;25571;47.876;10.642;2024-01-10T09:17:43;40.90;;;25.15;;
39898;SDS011;25571;47.876;10.642;2024-01-10T09:20:09;38.30;;;23.52;;
39898;SDS011;25571;47.876;10.642;2024-01-10T09:22:36;39.35;;;23.90;;
39898;SDS011;25571;47.876;10.642;2024-01-10T09:25:03;41.67;;;25.30;;
39898;SDS011;25571;47.876;10.642;2024-01-10T09:27:33;44.08;;;26.23;;
39898;SDS011;25571;47.876;10.642;2024-01-10T09:30:00;44.83;;;26.83;;
39898;SDS011;25571;47.876;10.642;2024-01-10T09:32:33;42.97;;;26.13;;
39898;SDS011;25571;47.876;10.642;2024-01-10T09:35:00;47.22;;;26.70;;
39898;SDS011;25571;47.876;10.642;2024-01-10T09:37:26;50.72;;;29.20;;
39898;SDS011;25571;47.876;10.642;2024-01-10T09:39:51;47.03;;;26.92;;
39898;SDS011;25571;47.876;10.642;2024-01-10T09:42:17;46.90;;;26.67;;
39898;SDS011;25571;47.876;10.642;2024-01-10T09:44:50;46.40;;;26.50;;
39898;SDS011;25571;47.876;10.642;2024-01-10T09:47:16;47.17;;;26.77;;
39898;SDS011;25571;47.876;10.642;2024-01-10T09:49:44;46.10;;;26.02;;
39898;SDS011;25571;47.876;10.642;2024-01-10T09:52:11;49.72;;;26.85;;
39898;SDS011;25571;47.876;10.642;2024-01-10T09:54:50;50.00;;;26.38;;
39898;SDS011;25571;47.876;10.642;2024-01-10T09:57:20;52.90;;;28.85;;
39898;SDS011;25571;47.876;10.642;2024-01-10T09:59:47;48.00;;;27.10;;
39898;SDS011;25571;47.876;10.642;2024-01-10T10:02:13;48.85;;;27.23;;
39898;SDS011;25571;47.876;10.642;2024-01-10T10:04:41;48.08;;;25.58;;
39898;SDS011;25571;47.876;10.642;2024-01-10T10:07:42;51.50;;;26.35;;
39898;SDS011;25571;47.876;10.642;2024-01-10T10:10:11;50.92;;;27.08;;
39898;SDS011;25571;47.876;10.642;2024-01-10T10:12:47;44.72;;;25.10;;
39898;SDS011;25571;47.876;10.642;2024-01-10T10:15:15;45.85;;;24.42;;
39898;SDS011;25571;47.876;10.642;2024-01-10T10:17:43;43.20;;;24.20;;
39898;SDS011;25571;47.876;10.642;2024-01-10T10:20:21;42.67;;;22.63;;
39898;SDS011;25571;47.876;10.642;2024-01-10T10:22:57;44.50;;;25.17;;
39898;SDS011;25571;47.876;10.642;2024-01-10T10:25:27;47.28;;;25.38;;
39898;SDS011;25571;47.876;10.642;2024-01-10T10:27:57;46.28;;;25.42;;
39898;SDS011;25571;47.876;10.642;2024-01-10T10:30:23;39.67;;;22.15;;
39898;SDS011;25571;47.876;10.642;2024-01-10T10:32:49;42.00;;;22.90;;
39898;SDS011;25571;47.876;10.642;2024-01-10T10:35:15;41.53;;;22.88;;
39898;SDS011;25571;47.876;10.642;2024-01-10T10:37:41;40.60;;;22.35;;
39898;SDS011;25571;47.876;10.642;2024-01-10T10:40:06;45.90;;;24.02;;
39898;SDS011;25571;47.876;10.642;2024-01-10T10:42:34;46.40;;;23.65;;
39898;SDS011;25571;47.876;10.642;2024-01-10T10:45:03;41.10;;;21.40;;
39898;SDS011;25571;47.876;10.642;2024-01-10T10:47:34;44.25;;;23.63;;
39898;SDS011;25571;47.876;10.642;2024-01-10T10:50:03;41.45;;;22.13;;
39898;SDS011;25571;47.876;10.642;2024-01-10T10:52:30;48.72;;;24.63;;
39898;SDS011;25571;47.876;10.642;2024-01-10T10:54:56;45.90;;;23.52;;
39898;SDS011;25571;47.876;10.642;2024-01-10T10:57:25;44.47;;;23.38;;
39898;SDS011;25571;47.876;10.642;2024-01-10T10:59:53;43.83;;;24.08;;
39898;SDS011;25571;47.876;10.642;2024-01-10T11:02:21;44.55;;;22.50;;
39898;SDS011;25571;47.876;10.642;2024-01-10T11:04:49;42.63;;;22.67;;
39898;SDS011;25571;47.876;10.642;2024-01-10T11:09:44;46.90;;;23.63;;
39898;SDS011;25571;47.876;10.642;2024-01-10T11:13:00;45.95;;;24.00;;
39898;SDS011;25571;47.876;10.642;2024-01-10T11:23:40;49.17;;;24.45;;
39898;SDS011;25571;47.876;10.642;2024-01-10T11:26:13;46.80;;;24.17;;
39898;SDS011;25571;47.876;10.642;2024-01-10T11:28:40;41.45;;;22.75;;
39898;SDS011;25571;47.876;10.642;2024-01-10T11:31:07;43.80;;;22.38;;
39898;SDS011;25571;47.876;10.642;2024-01-10T11:33:39;44.92;;;22.63;;
39898;SDS011;25571;47.876;10.642;2024-01-10T11:38:33;45.45;;;22.42;;
39898;SDS011;25571;47.876;10.642;2024-01-10T11:40:59;41.90;;;22.10;;
39898;SDS011;25571;47.876;10.642;2024-01-10T11:43:26;44.78;;;22.98;;
39898;SDS011;25571;47.876;10.642;2024-01-10T11:45:52;48.10;;;23.95;;
39898;SDS011;25571;47.876;10.642;2024-01-10T11:48:26;49.35;;;25.05;;
39898;SDS011;25571;47.876;10.642;2024-01-10T11:50:53;42.63;;;21.55;;
39898;SDS011;25571;47.876;10.642;2024-01-10T11:56:15;47.25;;;23.20;;
39898;SDS011;25571;47.876;10.642;2024-01-10T12:01:28;42.33;;;20.50;;
39898;SDS011;25571;47.876;10.642;2024-01-10T12:03:54;38.28;;;19.85;;
39898;SDS011;25571;47.876;10.642;2024-01-10T12:06:21;43.50;;;21.77;;
39898;SDS011;25571;47.876;10.642;2024-01-10T12:08:47;43.50;;;21.60;;
39898;SDS011;25571;47.876;10.642;2024-01-10T12:11:14;52.33;;;27.50;;
39898;SDS011;25571;47.876;10.642;2024-01-10T12:13:41;46.92;;;24.05;;
39898;SDS011;25571;47.876;10.642;2024-01-10T12:16:06;44.35;;;22.30;;
39898;SDS011;25571;47.876;10.642;2024-01-10T12:18:32;40.97;;;21.15;;
39898;SDS011;25571;47.876;10.642;2024-01-10T12:20:58;42.88;;;21.90;;
39898;SDS011;25571;47.876;10.642;2024-01-10T12:23:24;45.80;;;23.40;;
39898;SDS011;25571;47.876;10.642;2024-01-10T12:25:55;41.70;;;21.50;;
39898;SDS011;25571;47.876;10.642;2024-01-10T12:28:21;52.88;;;26.83;;
39898;SDS011;25571;47.876;10.642;2024-01-10T12:30:48;46.30;;;23.98;;
39898;SDS011;25571;47.876;10.642;2024-01-10T12:33:13;53.67;;;25.13;;
39898;SDS011;25571;47.876;10.642;2024-01-10T12:35:39;46.58;;;22.13;;
39898;SDS011;25571;47.876;10.642;2024-01-10T12:38:07;33.10;;;16.60;;
39898;SDS011;25571;47.876;10.642;2024-01-10T12:40:35;48.53;;;24.87;;
39898;SDS011;25571;47.876;10.642;2024-01-10T12:43:05;85.50;;;36.97;;
39898;SDS011;25571;47.876;10.642;2024-01-10T12:47:56;36.63;;;18.90;;
39898;SDS011;25571;47.876;10.642;2024-01-10T12:50:22;34.53;;;17.95;;
39898;SDS011;25571;47.876;10.642;2024-01-10T12:52:50;33.33;;;16.13;;
39898;SDS011;25571;47.876;10.642;2024-01-10T12:55:15;36.60;;;17.88;;
39898;SDS011;25571;47.876;10.642;2024-01-10T12:57:42;41.22;;;18.85;;
39898;SDS011;25571;47.876;10.642;2024-01-10T13:00:11;38.13;;;20.00;;
39898;SDS011;25571;47.876;10.642;2024-01-10T13:02:38;34.42;;;18.77;;
39898;SDS011;25571;47.876;10.642;2024-01-10T13:05:05;34.25;;;18.45;;
39898;SDS011;25571;47.876;10.642;2024-01-10T13:07:34;36.28;;;18.58;;
39898;SDS011;25571;47.876;10.642;2024-01-10T13:10:01;38.03;;;18.83;;
39898;SDS011;25571;47.876;10.642;2024-01-10T13:12:26;37.70;;;18.98;;
39898;SDS011;25571;47.876;10.642;2024-01-10T13:14:52;38.30;;;18.35;;
39898;SDS011;25571;47.876;10.642;2024-01-10T13:17:18;35.72;;;18.55;;
39898;SDS011;25571;47.876;10.642;2024-01-10T13:19:44;38.42;;;19.10;;
39898;SDS011;25571;47.876;10.642;2024-01-10T13:24:42;37.60;;;18.40;;
39898;SDS011;25571;47.876;10.642;2024-01-10T13:27:07;41.53;;;19.25;;
39898;SDS011;25571;47.876;10.642;2024-01-10T13:29:35;32.95;;;16.60;;
39898;SDS011;25571;47.876;10.642;2024-01-10T13:32:02;40.83;;;20.20;;
39898;SDS011;25571;47.876;10.642;2024-01-10T13:34:28;45.65;;;20.25;;
39898;SDS011;25571;47.876;10.642;2024-01-10T13:36:54;47.83;;;22.98;;
39898;SDS011;25571;47.876;10.642;2024-01-10T13:39:19;48.50;;;21.65;;
39898;SDS011;25571;47.876;10.642;2024-01-10T13:41:45;45.00;;;22.40;;
39898;SDS011;25571;47.876;10.642;2024-01-10T13:44:11;50.80;;;23.35;;
39898;SDS011;25571;47.876;10.642;2024-01-10T13:46:36;49.78;;;22.67;;
39898;SDS011;25571;47.876;10.642;2024-01-10T13:49:02;53.17;;;26.33;;
39898;SDS011;25571;47.876;10.642;2024-01-10T13:51:28;48.63;;;24.15;;
39898;SDS011;25571;47.876;10.642;2024-01-10T13:53:54;50.75;;;24.67;;
39898;SDS011;25571;47.876;10.642;2024-01-10T13:56:19;56.47;;;24.92;;
39898;SDS011;25571;47.876;10.642;2024-01-10T13:58:47;52.63;;;24.27;;
39898;SDS011;25571;47.876;10.642;2024-01-10T14:01:13;56.75;;;26.88;;
39898;SDS011;25571;47.876;10.642;2024-01-10T14:03:39;48.65;;;24.05;;
39898;SDS011;25571;47.876;10.642;2024-01-10T14:06:05;49.40;;;24.45;;
39898;SDS011;25571;47.876;10.642;2024-01-10T14:08:31;51.03;;;24.60;;
39898;SDS011;25571;47.876;10.642;2024-01-10T14:10:56;48.90;;;23.45;;
39898;SDS011;25571;47.876;10.642;2024-01-10T14:13:22;54.72;;;26.08;;
39898;SDS011;25571;47.876;10.642;2024-01-10T14:15:50;47.03;;;22.23;;
39898;SDS011;25571;47.876;10.642;2024-01-10T14:18:16;46.72;;;23.10;;
39898;SDS011;25571;47.876;10.642;2024-01-10T14:20:41;46.03;;;23.15;;
39898;SDS011;25571;47.876;10.642;2024-01-10T14:23:07;53.13;;;23.65;;
39898;SDS011;25571;47.876;10.642;2024-01-10T14:25:32;48.03;;;23.90;;
39898;SDS011;25571;47.876;10.642;2024-01-10T14:27:58;48.85;;;24.15;;